createdAt,value
2019-04-05T00:01:46.033Z,55.34
2019-04-05T00:07:10.871Z,55.38
2019-04-05T00:12:35.550Z,55.90
2019-04-05T00:17:59.229Z,55.71
2019-04-05T00:23:23.626Z,55.60
2019-04-05T00:28:51.568Z,55.75
2019-04-05T00:34:14.731Z,55.88
2019-04-05T00:39:38.658Z,56.32
2019-04-05T00:45:03.508Z,56.79
2019-04-05T00:50:27.371Z,56.83
2019-04-05T00:55:51.490Z,56.81
2019-04-05T01:01:16.364Z,57.29
2019-04-05T01:06:41.041Z,58.11
2019-04-05T01:12:05.873Z,58.17
2019-04-05T01:17:30.255Z,58.49
2019-04-05T01:22:55.455Z,59.11
2019-04-05T01:28:19.884Z,59.56
2019-04-05T01:33:44.758Z,61.11
2019-04-05T01:39:09.577Z,61.37
2019-04-05T01:44:34.040Z,61.93
2019-04-05T01:49:57.449Z,61.67
2019-04-05T01:55:22.239Z,61.75
2019-04-05T02:00:47.407Z,61.84
2019-04-05T02:06:11.893Z,62.03
2019-04-05T02:11:36.450Z,62.22
2019-04-05T02:17:00.935Z,62.12
2019-04-05T02:22:25.942Z,62.47
2019-04-05T02:27:49.579Z,62.40
2019-04-05T02:33:13.561Z,62.57
2019-04-05T02:38:38.597Z,62.81
2019-04-05T02:44:03.477Z,62.84
2019-04-05T02:49:30.403Z,62.99
2019-04-05T02:54:55.205Z,62.58
2019-04-05T03:00:20.282Z,62.81
2019-04-05T03:05:46.821Z,62.75
2019-04-05T03:11:14.039Z,62.83
2019-04-05T03:16:42.256Z,63.39
2019-04-05T03:22:09.184Z,63.34
2019-04-05T03:27:37.044Z,63.61
2019-04-05T03:33:00.881Z,63.99
2019-04-05T03:38:25.832Z,64.18
2019-04-05T03:43:50.868Z,64.17
2019-04-05T03:49:14.577Z,64.30
2019-04-05T03:54:38.684Z,64.62
2019-04-05T04:00:03.895Z,65.12
2019-04-05T04:05:29.545Z,65.68
2019-04-05T04:10:55.183Z,66.67
2019-04-05T04:16:20.330Z,66.67
2019-04-05T04:22:04.779Z,67.04
2019-04-05T04:27:29.896Z,67.90
2019-04-05T04:32:54.877Z,68.06
2019-04-05T04:38:19.435Z,68.12
2019-04-05T04:43:44.965Z,69.04
2019-04-05T04:49:10.054Z,70.52
2019-04-05T04:54:34.836Z,71.69
2019-04-05T05:00:00.163Z,71.01
2019-04-05T05:05:23.868Z,71.09
2019-04-05T05:10:48.478Z,70.08
2019-04-05T05:16:13.600Z,68.31
2019-04-05T05:21:37.650Z,66.84
2019-04-05T05:27:01.949Z,65.51
2019-04-05T05:32:26.581Z,63.97
2019-04-05T05:37:51.324Z,62.74
2019-04-05T05:43:16.172Z,62.32
2019-04-05T05:48:41.145Z,62.90
2019-04-05T05:54:05.667Z,68.14
2019-04-05T05:59:30.826Z,71.25
2019-04-05T06:04:55.186Z,74.34
2019-04-05T06:10:19.678Z,75.67
2019-04-05T06:15:44.177Z,76.36
2019-04-05T06:21:09.102Z,80.07
2019-04-05T06:26:34.131Z,82.96
2019-04-05T06:31:58.087Z,85.87
2019-04-05T06:37:21.739Z,86.40
2019-04-05T06:42:46.278Z,86.77
2019-04-05T06:48:18.936Z,88.26
2019-04-05T06:53:35.740Z,88.61
2019-04-05T06:58:59.380Z,88.68
2019-04-05T07:04:24.455Z,89.01
2019-04-05T07:09:48.858Z,88.37
2019-04-05T07:15:13.596Z,88.44
2019-04-05T07:20:38.406Z,89.97
2019-04-05T07:26:02.610Z,89.60
2019-04-05T07:31:27.250Z,88.74
2019-04-05T07:36:51.656Z,87.82
2019-04-05T07:42:15.697Z,88.20
2019-04-05T07:47:40.780Z,87.25
2019-04-05T07:53:04.805Z,88.32
2019-04-05T07:58:29.373Z,89.37
2019-04-05T08:03:54.234Z,89.15
2019-04-05T08:09:20.075Z,87.79
2019-04-05T08:14:45.330Z,87.71
2019-04-05T08:20:09.757Z,87.86
2019-04-05T08:25:34.939Z,86.79
2019-04-05T08:30:59.624Z,84.78
2019-04-05T08:36:23.928Z,85.06
2019-04-05T08:41:49.686Z,84.98
2019-04-05T08:47:14.152Z,84.02
2019-04-05T08:52:38.120Z,83.56
2019-04-05T08:58:01.894Z,82.64
2019-04-05T09:03:25.639Z,81.83
2019-04-05T09:08:50.683Z,83.49
2019-04-05T09:14:14.390Z,81.07
2019-04-05T09:19:38.722Z,81.81
2019-04-05T09:25:02.778Z,82.45
2019-04-05T09:30:26.764Z,82.14
2019-04-05T09:35:51.271Z,82.18
2019-04-05T09:41:15.482Z,81.60
2019-04-05T09:46:46.501Z,82.21
2019-04-05T09:52:06.142Z,81.72
2019-04-05T09:57:30.044Z,81.93
2019-04-05T10:02:54.726Z,81.88
2019-04-05T10:08:19.591Z,81.42
2019-04-05T10:13:44.739Z,81.80
2019-04-05T10:19:09.771Z,80.81
2019-04-05T10:24:34.033Z,80.86
2019-04-05T10:29:58.476Z,79.81
2019-04-05T10:35:22.993Z,79.37
2019-04-05T10:40:47.835Z,80.26
2019-04-05T10:46:11.593Z,78.45
2019-04-05T10:51:35.647Z,76.51
2019-04-05T10:57:00.214Z,76.71
2019-04-05T11:02:25.406Z,74.36
2019-04-05T11:07:50.043Z,73.22
2019-04-05T11:13:15.008Z,72.02
2019-04-05T11:18:40.121Z,72.19
2019-04-05T11:24:04.974Z,71.48
2019-04-05T11:29:29.536Z,70.20
2019-04-05T11:34:54.452Z,68.73
2019-04-05T11:40:18.400Z,64.78
2019-04-05T11:45:42.898Z,64.23
2019-04-05T11:51:07.648Z,63.48
2019-04-05T11:56:32.309Z,63.26
2019-04-05T12:02:15.043Z,59.82
2019-04-05T12:07:39.557Z,60.26
2019-04-05T12:13:03.732Z,56.83
2019-04-05T12:18:28.195Z,55.89
2019-04-05T12:23:52.222Z,56.19
2019-04-05T12:29:16.397Z,53.57
2019-04-05T12:34:39.955Z,51.02
2019-04-05T12:40:07.504Z,52.03
2019-04-05T12:45:30.319Z,50.12
2019-04-05T12:51:00.929Z,49.61
2019-04-05T12:56:20.847Z,51.42
2019-04-05T13:01:45.554Z,52.34
2019-04-05T13:07:10.822Z,50.42
2019-04-05T13:12:35.047Z,49.37
2019-04-05T13:18:01.266Z,48.23
2019-04-05T13:23:25.348Z,49.85
2019-04-05T13:28:49.288Z,49.41
2019-04-05T13:34:13.528Z,47.87
2019-04-05T13:39:37.306Z,45.87
2019-04-05T13:45:01.803Z,45.88
2019-04-05T13:50:26.255Z,47.14
2019-04-05T13:55:50.664Z,49.38
2019-04-05T14:01:14.832Z,47.86
2019-04-05T14:06:38.730Z,46.07
2019-04-05T14:12:04.029Z,49.04
2019-04-05T14:17:28.203Z,51.63
2019-04-05T14:22:52.504Z,48.49
2019-04-05T14:28:16.732Z,49.00
2019-04-05T14:33:40.392Z,51.17
2019-04-05T14:39:07.014Z,48.08
2019-04-05T14:44:31.147Z,49.42
2019-04-05T14:49:54.962Z,48.22
2019-04-05T14:55:19.881Z,47.34
2019-04-05T15:00:44.455Z,50.24
2019-04-05T15:06:09.015Z,50.83
2019-04-05T15:11:33.368Z,50.39
2019-04-05T15:16:57.289Z,52.27
2019-04-05T15:22:21.813Z,52.07
2019-04-05T15:27:46.299Z,53.11
2019-04-05T15:33:11.089Z,51.68
2019-04-05T15:38:35.309Z,50.84
2019-04-05T15:43:59.708Z,53.84
2019-04-05T15:49:24.196Z,51.50
2019-04-05T15:54:47.685Z,51.90
2019-04-05T16:00:14.183Z,51.85
2019-04-05T16:05:37.633Z,51.65
2019-04-05T16:11:02.793Z,50.73
2019-04-05T16:16:27.113Z,50.74
2019-04-05T16:21:51.543Z,52.27
2019-04-05T16:27:16.019Z,52.08
2019-04-05T16:32:39.525Z,53.08
2019-04-05T16:38:03.808Z,54.43
2019-04-05T16:43:28.405Z,54.88
2019-04-05T16:48:52.498Z,55.13
2019-04-05T16:54:16.202Z,56.37
2019-04-05T16:59:39.655Z,56.97
2019-04-05T17:05:04.633Z,57.02
2019-04-05T17:10:29.056Z,57.65
2019-04-05T17:15:53.562Z,58.71
2019-04-05T17:21:17.753Z,59.35
2019-04-05T17:26:41.535Z,59.98
2019-04-05T17:32:04.869Z,60.45
2019-04-05T17:37:28.521Z,61.46
2019-04-05T17:42:52.768Z,61.89
2019-04-05T17:48:16.145Z,62.58
2019-04-05T17:53:40.348Z,63.94
2019-04-05T17:59:04.891Z,64.14
2019-04-05T18:04:28.472Z,64.28
2019-04-05T18:09:52.653Z,64.75
2019-04-05T18:15:16.750Z,65.31
2019-04-05T18:20:40.390Z,65.64
2019-04-05T18:26:04.785Z,66.94
2019-04-05T18:31:28.893Z,67.17
2019-04-05T18:36:53.114Z,67.41
2019-04-05T18:42:17.609Z,67.91
2019-04-05T18:47:41.396Z,67.44
2019-04-05T18:53:05.871Z,68.12
2019-04-05T18:58:29.934Z,68.36
2019-04-05T19:03:54.186Z,68.18
2019-04-05T19:09:18.056Z,68.44
2019-04-05T19:14:41.968Z,67.91
2019-04-05T19:20:06.154Z,68.31
2019-04-05T19:25:30.325Z,68.41
2019-04-05T19:52:37.257Z,70.80
2019-04-05T19:58:00.996Z,71.40
2019-04-05T20:03:24.525Z,71.89
2019-04-05T20:08:49.115Z,72.19
2019-04-05T20:14:13.262Z,71.81
2019-04-05T20:19:37.914Z,72.28
2019-04-05T20:25:02.761Z,72.49
2019-04-05T20:30:27.234Z,72.99
2019-04-05T20:35:50.795Z,73.26
2019-04-05T20:41:14.550Z,73.09
2019-04-05T20:46:39.140Z,73.67
2019-04-05T20:52:02.738Z,73.38
2019-04-05T20:57:27.995Z,73.64
2019-04-05T21:02:52.229Z,73.86
2019-04-05T21:08:15.918Z,73.87
2019-04-05T21:13:39.907Z,74.24
2019-04-05T21:19:05.050Z,74.66
2019-04-05T21:24:36.062Z,75.37
2019-04-05T21:29:54.573Z,76.03
2019-04-05T21:35:19.074Z,76.74
2019-04-05T21:40:42.629Z,77.64
2019-04-05T21:46:06.885Z,78.17
2019-04-05T21:51:31.121Z,78.85
2019-04-05T21:56:55.572Z,79.98
2019-04-05T22:02:18.964Z,80.40
2019-04-05T22:07:43.256Z,80.50
2019-04-05T22:13:06.630Z,80.93
2019-04-05T22:18:30.172Z,80.77
2019-04-05T22:23:54.665Z,80.67
2019-04-05T22:29:18.503Z,80.93
2019-04-05T22:34:43.211Z,81.53
2019-04-05T22:40:07.723Z,80.84
2019-04-05T22:45:31.618Z,80.34
2019-04-05T22:50:55.686Z,80.33
2019-04-05T22:56:19.692Z,79.95
2019-04-05T23:01:44.167Z,79.85
2019-04-05T23:07:08.710Z,80.33
2019-04-05T23:12:32.209Z,81.58
2019-04-05T23:17:57.079Z,82.03
2019-04-05T23:23:21.437Z,82.06
2019-04-05T23:28:45.920Z,82.81
2019-04-05T23:34:10.216Z,82.74
2019-04-05T23:39:33.836Z,82.03
2019-04-05T23:44:58.521Z,82.48
2019-04-05T23:50:22.117Z,80.79
2019-04-05T23:55:45.771Z,78.96
